sensor_id;sensor_type;location;lat;lon;timestamp;temperature;humidity
8780;DHT22;62328;51.19929245;4.42130175;2023-04-01T00:00:59;10.40;99.90
8780;DHT22;62328;51.19929245;4.42130175;2023-04-01T00:03:27;10.40;99.90
8780;DHT22;62328;51.19929245;4.42130175;2023-04-01T00:05:56;10.40;99.90
8780;DHT22;62328;51.19929245;4.42130175;2023-04-01T00:08:24;10.40;99.90
8780;DHT22;62328;51.19929245;4.42130175;2023-04-01T00:10:54;10.50;99.90
8780;DHT22;62328;51.19929245;4.42130175;2023-04-01T00:13:23;10.40;99.90
8780;DHT22;62328;51.19929245;4.42130175;2023-04-01T00:15:52;10.40;99.90
8780;DHT22;62328;51.19929245;4.42130175;2023-04-01T00:18:20;10.30;99.90
8780;DHT22;62328;51.19929245;4.42130175;2023-04-01T00:20:51;10.40;99.90
8780;DHT22;62328;51.19929245;4.42130175;2023-04-01T00:23:22;10.40;99.90
8780;DHT22;62328;51.19929245;4.42130175;2023-04-01T00:25:49;10.40;99.90
8780;DHT22;62328;51.19929245;4.42130175;2023-04-01T00:28:16;10.50;99.90
8780;DHT22;62328;51.19929245;4.42130175;2023-04-01T00:30:46;10.50;99.90
8780;DHT22;62328;51.19929245;4.42130175;2023-04-01T00:33:13;10.40;99.90
8780;DHT22;62328;51.19929245;4.42130175;2023-04-01T00:35:40;10.40;99.90
8780;DHT22;62328;51.19929245;4.42130175;2023-04-01T00:38:07;10.50;99.90
8780;DHT22;62328;51.19929245;4.42130175;2023-04-01T00:40:43;10.50;99.90
8780;DHT22;62328;51.19929245;4.42130175;2023-04-01T00:43:14;10.50;99.90
8780;DHT22;62328;51.19929245;4.42130175;2023-04-01T00:45:44;10.60;99.90
8780;DHT22;62328;51.19929245;4.42130175;2023-04-01T00:48:15;10.50;99.90
8780;DHT22;62328;51.19929245;4.42130175;2023-04-01T00:50:45;10.60;99.90
8780;DHT22;62328;51.19929245;4.42130175;2023-04-01T00:53:14;10.60;99.90
8780;DHT22;62328;51.19929245;4.42130175;2023-04-01T00:55:47;10.60;99.90
8780;DHT22;62328;51.19929245;4.42130175;2023-04-01T00:58:17;10.60;99.90
8780;DHT22;62328;51.19929245;4.42130175;2023-04-01T01:00:49;10.70;99.90
8780;DHT22;62328;51.19929245;4.42130175;2023-04-01T01:03:20;10.70;99.90
8780;DHT22;62328;51.19929245;4.42130175;2023-04-01T01:06:04;10.80;99.90
8780;DHT22;62328;51.19929245;4.42130175;2023-04-01T01:08:57;10.70;99.90
8780;DHT22;62328;51.19929245;4.42130175;2023-04-01T01:11:35;10.70;99.90
8780;DHT22;62328;51.19929245;4.42130175;2023-04-01T01:14:09;10.70;99.90
8780;DHT22;62328;51.19929245;4.42130175;2023-04-01T01:16:44;10.70;99.90
8780;DHT22;62328;51.19929245;4.42130175;2023-04-01T01:19:39;10.60;99.90
8780;DHT22;62328;51.19929245;4.42130175;2023-04-01T01:22:33;10.60;99.90
8780;DHT22;62328;51.19929245;4.42130175;2023-04-01T01:25:23;10.50;99.90
8780;DHT22;62328;51.19929245;4.42130175;2023-04-01T01:27:58;10.60;99.90
8780;DHT22;62328;51.19929245;4.42130175;2023-04-01T01:30:43;10.60;99.90
8780;DHT22;62328;51.19929245;4.42130175;2023-04-01T01:33:49;10.60;99.90
8780;DHT22;62328;51.19929245;4.42130175;2023-04-01T01:36:21;10.60;99.90
8780;DHT22;62328;51.19929245;4.42130175;2023-04-01T01:38:51;10.70;99.90
8780;DHT22;62328;51.19929245;4.42130175;2023-04-01T01:41:23;10.60;99.90
8780;DHT22;62328;51.19929245;4.42130175;2023-04-01T01:43:54;10.60;99.90
8780;DHT22;62328;51.19929245;4.42130175;2023-04-01T01:46:24;10.50;99.90
8780;DHT22;62328;51.19929245;4.42130175;2023-04-01T01:48:55;10.50;99.90
8780;DHT22;62328;51.19929245;4.42130175;2023-04-01T01:51:27;10.50;99.90
8780;DHT22;62328;51.19929245;4.42130175;2023-04-01T01:53:54;10.80;99.90
8780;DHT22;62328;51.19929245;4.42130175;2023-04-01T01:56:23;10.40;99.90
8780;DHT22;62328;51.19929245;4.42130175;2023-04-01T01:58:55;10.50;99.90
8780;DHT22;62328;51.19929245;4.42130175;2023-04-01T02:01:25;10.50;99.90
8780;DHT22;62328;51.19929245;4.42130175;2023-04-01T02:03:54;10.40;99.90
8780;DHT22;62328;51.19929245;4.42130175;2023-04-01T02:06:24;10.50;99.90
8780;DHT22;62328;51.19929245;4.42130175;2023-04-01T02:08:55;10.50;99.90
8780;DHT22;62328;51.19929245;4.42130175;2023-04-01T02:11:26;10.50;99.90
8780;DHT22;62328;51.19929245;4.42130175;2023-04-01T02:13:55;10.50;99.90
8780;DHT22;62328;51.19929245;4.42130175;2023-04-01T02:16:27;10.50;99.90
8780;DHT22;62328;51.19929245;4.42130175;2023-04-01T02:18:56;10.40;99.90
8780;DHT22;62328;51.19929245;4.42130175;2023-04-01T02:21:29;10.40;99.90
8780;DHT22;62328;51.19929245;4.42130175;2023-04-01T02:24:00;10.40;99.90
8780;DHT22;62328;51.19929245;4.42130175;2023-04-01T02:26:28;10.40;99.90
8780;DHT22;62328;51.19929245;4.42130175;2023-04-01T02:28:56;10.40;99.90
8780;DHT22;62328;51.19929245;4.42130175;2023-04-01T02:31:27;10.40;99.90
8780;DHT22;62328;51.19929245;4.42130175;2023-04-01T02:33:54;10.40;99.90
8780;DHT22;62328;51.19929245;4.42130175;2023-04-01T02:36:21;10.40;99.90
8780;DHT22;62328;51.19929245;4.42130175;2023-04-01T02:38:49;10.30;99.90
8780;DHT22;62328;51.19929245;4.42130175;2023-04-01T02:41:22;10.30;99.90
8780;DHT22;62328;51.19929245;4.42130175;2023-04-01T02:43:48;10.30;99.90
8780;DHT22;62328;51.19929245;4.42130175;2023-04-01T02:46:16;10.30;99.90
8780;DHT22;62328;51.19929245;4.42130175;2023-04-01T02:48:43;10.30;99.90
8780;DHT22;62328;51.19929245;4.42130175;2023-04-01T02:51:13;10.30;99.90
8780;DHT22;62328;51.19929245;4.42130175;2023-04-01T02:53:40;10.30;99.90
8780;DHT22;62328;51.19929245;4.42130175;2023-04-01T02:56:06;10.30;99.90
8780;DHT22;62328;51.19929245;4.42130175;2023-04-01T02:58:35;10.30;99.90
8780;DHT22;62328;51.19929245;4.42130175;2023-04-01T03:01:01;10.20;99.90
8780;DHT22;62328;51.19929245;4.42130175;2023-04-01T03:03:31;10.30;99.90
8780;DHT22;62328;51.19929245;4.42130175;2023-04-01T03:05:58;10.30;99.90
8780;DHT22;62328;51.19929245;4.42130175;2023-04-01T03:08:25;10.30;99.90
8780;DHT22;62328;51.19929245;4.42130175;2023-04-01T03:10:52;10.30;99.90
8780;DHT22;62328;51.19929245;4.42130175;2023-04-01T03:13:21;10.30;99.90
8780;DHT22;62328;51.19929245;4.42130175;2023-04-01T03:15:50;10.30;99.90
8780;DHT22;62328;51.19929245;4.42130175;2023-04-01T03:18:16;10.30;99.90
8780;DHT22;62328;51.19929245;4.42130175;2023-04-01T03:20:43;10.30;99.90
8780;DHT22;62328;51.19929245;4.42130175;2023-04-01T03:23:10;10.30;99.90
8780;DHT22;62328;51.19929245;4.42130175;2023-04-01T03:25:37;10.30;99.90
8780;DHT22;62328;51.19929245;4.42130175;2023-04-01T03:28:04;10.30;99.90
8780;DHT22;62328;51.19929245;4.42130175;2023-04-01T03:30:31;10.30;99.90
8780;DHT22;62328;51.19929245;4.42130175;2023-04-01T03:32:59;10.30;99.90
8780;DHT22;62328;51.19929245;4.42130175;2023-04-01T03:35:26;10.30;99.90
8780;DHT22;62328;51.19929245;4.42130175;2023-04-01T03:37:53;10.30;99.90
8780;DHT22;62328;51.19929245;4.42130175;2023-04-01T03:40:20;10.20;99.90
8780;DHT22;62328;51.19929245;4.42130175;2023-04-01T03:42:47;10.30;99.90
8780;DHT22;62328;51.19929245;4.42130175;2023-04-01T03:45:15;10.30;99.90
8780;DHT22;62328;51.19929245;4.42130175;2023-04-01T03:47:41;10.40;99.90
8780;DHT22;62328;51.19929245;4.42130175;2023-04-01T03:50:10;10.30;99.90
8780;DHT22;62328;51.19929245;4.42130175;2023-04-01T03:52:37;10.30;99.90
8780;DHT22;62328;51.19929245;4.42130175;2023-04-01T03:55:04;10.30;99.90
8780;DHT22;62328;51.19929245;4.42130175;2023-04-01T03:57:34;10.30;99.90
8780;DHT22;62328;51.19929245;4.42130175;2023-04-01T04:00:02;10.30;99.90
8780;DHT22;62328;51.19929245;4.42130175;2023-04-01T04:02:29;10.30;99.90
8780;DHT22;62328;51.19929245;4.42130175;2023-04-01T04:04:56;10.40;99.90
8780;DHT22;62328;51.19929245;4.42130175;2023-04-01T04:07:24;10.30;99.90
8780;DHT22;62328;51.19929245;4.42130175;2023-04-01T04:09:51;10.30;99.90
8780;DHT22;62328;51.19929245;4.42130175;2023-04-01T04:12:17;10.30;99.90
8780;DHT22;62328;51.19929245;4.42130175;2023-04-01T04:14:44;10.30;99.90
8780;DHT22;62328;51.19929245;4.42130175;2023-04-01T04:17:11;10.30;99.90
8780;DHT22;62328;51.19929245;4.42130175;2023-04-01T04:19:44;10.30;99.90
8780;DHT22;62328;51.19929245;4.42130175;2023-04-01T04:22:11;10.30;99.90
8780;DHT22;62328;51.19929245;4.42130175;2023-04-01T04:24:39;10.30;99.90
8780;DHT22;62328;51.19929245;4.42130175;2023-04-01T04:27:06;10.30;99.90
8780;DHT22;62328;51.19929245;4.42130175;2023-04-01T04:29:36;10.30;99.90
8780;DHT22;62328;51.19929245;4.42130175;2023-04-01T04:32:03;10.30;99.90
8780;DHT22;62328;51.19929245;4.42130175;2023-04-01T04:34:29;10.30;99.90
8780;DHT22;62328;51.19929245;4.42130175;2023-04-01T04:36:56;10.20;99.90
8780;DHT22;62328;51.19929245;4.42130175;2023-04-01T04:39:23;10.30;99.90
8780;DHT22;62328;51.19929245;4.42130175;2023-04-01T04:41:52;10.30;99.90
8780;DHT22;62328;51.19929245;4.42130175;2023-04-01T04:44:18;10.20;99.90
8780;DHT22;62328;51.19929245;4.42130175;2023-04-01T04:46:45;10.20;99.90
8780;DHT22;62328;51.19929245;4.42130175;2023-04-01T04:49:12;10.20;99.90
8780;DHT22;62328;51.19929245;4.42130175;2023-04-01T04:51:39;10.10;99.90
8780;DHT22;62328;51.19929245;4.42130175;2023-04-01T04:54:06;10.20;99.90
8780;DHT22;62328;51.19929245;4.42130175;2023-04-01T04:56:33;10.20;99.90
8780;DHT22;62328;51.19929245;4.42130175;2023-04-01T04:59:02;10.20;99.90
8780;DHT22;62328;51.19929245;4.42130175;2023-04-01T05:01:29;10.20;99.90
8780;DHT22;62328;51.19929245;4.42130175;2023-04-01T05:03:56;10.10;99.90
8780;DHT22;62328;51.19929245;4.42130175;2023-04-01T05:06:22;10.10;99.90
8780;DHT22;62328;51.19929245;4.42130175;2023-04-01T05:08:52;10.20;99.90
8780;DHT22;62328;51.19929245;4.42130175;2023-04-01T05:11:20;10.10;99.90
8780;DHT22;62328;51.19929245;4.42130175;2023-04-01T05:13:47;10.10;99.90
8780;DHT22;62328;51.19929245;4.42130175;2023-04-01T05:16:18;10.10;99.90
8780;DHT22;62328;51.19929245;4.42130175;2023-04-01T05:18:48;10.20;99.90
8780;DHT22;62328;51.19929245;4.42130175;2023-04-01T05:21:15;10.20;99.90
8780;DHT22;62328;51.19929245;4.42130175;2023-04-01T05:23:42;10.20;99.90
8780;DHT22;62328;51.19929245;4.42130175;2023-04-01T05:26:11;10.20;99.90
8780;DHT22;62328;51.19929245;4.42130175;2023-04-01T05:28:42;10.20;99.90
8780;DHT22;62328;51.19929245;4.42130175;2023-04-01T05:31:09;10.20;99.90
8780;DHT22;62328;51.19929245;4.42130175;2023-04-01T05:33:37;10.10;99.90
8780;DHT22;62328;51.19929245;4.42130175;2023-04-01T05:36:09;10.10;99.90
8780;DHT22;62328;51.19929245;4.42130175;2023-04-01T05:38:39;10.10;99.90
8780;DHT22;62328;51.19929245;4.42130175;2023-04-01T05:41:06;10.10;99.90
8780;DHT22;62328;51.19929245;4.42130175;2023-04-01T05:43:35;10.10;99.90
8780;DHT22;62328;51.19929245;4.42130175;2023-04-01T05:46:03;10.10;99.90
8780;DHT22;62328;51.19929245;4.42130175;2023-04-01T05:48:34;10.10;99.90
8780;DHT22;62328;51.19929245;4.42130175;2023-04-01T05:51:04;10.10;99.90
8780;DHT22;62328;51.19929245;4.42130175;2023-04-01T05:53:32;10.00;99.90
8780;DHT22;62328;51.19929245;4.42130175;2023-04-01T05:56:02;10.10;99.90
8780;DHT22;62328;51.19929245;4.42130175;2023-04-01T05:58:32;10.10;99.90
8780;DHT22;62328;51.19929245;4.42130175;2023-04-01T06:01:02;10.10;99.90
8780;DHT22;62328;51.19929245;4.42130175;2023-04-01T06:03:32;10.10;99.90
8780;DHT22;62328;51.19929245;4.42130175;2023-04-01T06:06:00;10.10;99.90
8780;DHT22;62328;51.19929245;4.42130175;2023-04-01T06:08:30;10.10;99.90
8780;DHT22;62328;51.19929245;4.42130175;2023-04-01T06:11:26;10.10;99.90
8780;DHT22;62328;51.19929245;4.42130175;2023-04-01T06:14:08;10.10;99.90
8780;DHT22;62328;51.19929245;4.42130175;2023-04-01T06:16:58;10.10;99.90
8780;DHT22;62328;51.19929245;4.42130175;2023-04-01T06:19:41;10.10;99.90
8780;DHT22;62328;51.19929245;4.42130175;2023-04-01T06:22:34;10.00;99.90
8780;DHT22;62328;51.19929245;4.42130175;2023-04-01T06:25:29;10.00;99.90
8780;DHT22;62328;51.19929245;4.42130175;2023-04-01T06:28:34;10.10;99.90
8780;DHT22;62328;51.19929245;4.42130175;2023-04-01T06:31:17;10.20;99.90
8780;DHT22;62328;51.19929245;4.42130175;2023-04-01T06:34:02;10.20;99.90
8780;DHT22;62328;51.19929245;4.42130175;2023-04-01T06:39:58;10.10;99.90
8780;DHT22;62328;51.19929245;4.42130175;2023-04-01T06:42:54;10.10;99.90
8780;DHT22;62328;51.19929245;4.42130175;2023-04-01T06:45:34;10.10;99.90
8780;DHT22;62328;51.19929245;4.42130175;2023-04-01T06:48:21;10.20;99.90
8780;DHT22;62328;51.19929245;4.42130175;2023-04-01T06:51:00;10.20;99.90
8780;DHT22;62328;51.19929245;4.42130175;2023-04-01T06:53:39;10.20;99.90
8780;DHT22;62328;51.19929245;4.42130175;2023-04-01T06:56:18;10.30;99.90
8780;DHT22;62328;51.19929245;4.42130175;2023-04-01T06:58:53;10.30;99.90
8780;DHT22;62328;51.19929245;4.42130175;2023-04-01T07:01:28;10.30;99.90
8780;DHT22;62328;51.19929245;4.42130175;2023-04-01T07:04:01;10.30;99.90
8780;DHT22;62328;51.19929245;4.42130175;2023-04-01T07:06:42;10.30;99.90
8780;DHT22;62328;51.19929245;4.42130175;2023-04-01T07:09:13;10.30;99.90
8780;DHT22;62328;51.19929245;4.42130175;2023-04-01T07:11:47;10.20;99.90
8780;DHT22;62328;51.19929245;4.42130175;2023-04-01T07:14:22;10.20;99.90
8780;DHT22;62328;51.19929245;4.42130175;2023-04-01T07:17:00;10.30;99.90
8780;DHT22;62328;51.19929245;4.42130175;2023-04-01T07:19:39;10.20;99.90
8780;DHT22;62328;51.19929245;4.42130175;2023-04-01T07:22:24;10.20;99.90
8780;DHT22;62328;51.19929245;4.42130175;2023-04-01T07:24:59;10.20;99.90
8780;DHT22;62328;51.19929245;4.42130175;2023-04-01T07:27:33;10.30;99.90
8780;DHT22;62328;51.19929245;4.42130175;2023-04-01T07:30:15;10.40;99.90
8780;DHT22;62328;51.19929245;4.42130175;2023-04-01T07:32:48;10.50;99.90
8780;DHT22;62328;51.19929245;4.42130175;2023-04-01T07:35:24;10.50;99.90
8780;DHT22;62328;51.19929245;4.42130175;2023-04-01T07:38:08;10.50;99.90
8780;DHT22;62328;51.19929245;4.42130175;2023-04-01T07:40:49;10.50;99.90
8780;DHT22;62328;51.19929245;4.42130175;2023-04-01T07:43:54;10.40;99.90
8780;DHT22;62328;51.19929245;4.42130175;2023-04-01T07:46:40;10.40;99.90
8780;DHT22;62328;51.19929245;4.42130175;2023-04-01T07:49:16;10.50;99.90
8780;DHT22;62328;51.19929245;4.42130175;2023-04-01T07:51:56;10.50;99.90
8780;DHT22;62328;51.19929245;4.42130175;2023-04-01T07:54:33;10.50;99.90
8780;DHT22;62328;51.19929245;4.42130175;2023-04-01T07:57:13;10.40;99.90
8780;DHT22;62328;51.19929245;4.42130175;2023-04-01T07:59:51;10.40;99.90
8780;DHT22;62328;51.19929245;4.42130175;2023-04-01T08:02:32;10.50;99.90
8780;DHT22;62328;51.19929245;4.42130175;2023-04-01T08:05:16;10.50;99.90
8780;DHT22;62328;51.19929245;4.42130175;2023-04-01T08:07:58;10.60;99.90
8780;DHT22;62328;51.19929245;4.42130175;2023-04-01T08:10:39;10.60;99.90
8780;DHT22;62328;51.19929245;4.42130175;2023-04-01T08:13:20;10.60;99.90
8780;DHT22;62328;51.19929245;4.42130175;2023-04-01T08:15:55;10.60;99.90
8780;DHT22;62328;51.19929245;4.42130175;2023-04-01T08:18:44;10.60;99.90
8780;DHT22;62328;51.19929245;4.42130175;2023-04-01T08:21:19;10.70;99.90
8780;DHT22;62328;51.19929245;4.42130175;2023-04-01T08:23:52;10.80;99.90
8780;DHT22;62328;51.19929245;4.42130175;2023-04-01T08:26:28;10.70;99.90
8780;DHT22;62328;51.19929245;4.42130175;2023-04-01T08:29:04;10.70;99.90
8780;DHT22;62328;51.19929245;4.42130175;2023-04-01T08:31:36;10.70;99.90
8780;DHT22;62328;51.19929245;4.42130175;2023-04-01T08:34:23;10.60;99.90
8780;DHT22;62328;51.19929245;4.42130175;2023-04-01T08:36:59;10.60;99.90
8780;DHT22;62328;51.19929245;4.42130175;2023-04-01T08:39:34;10.60;99.90
8780;DHT22;62328;51.19929245;4.42130175;2023-04-01T08:42:25;10.60;99.90
8780;DHT22;62328;51.19929245;4.42130175;2023-04-01T08:45:15;10.60;99.90
8780;DHT22;62328;51.19929245;4.42130175;2023-04-01T08:54:53;10.70;99.90
8780;DHT22;62328;51.19929245;4.42130175;2023-04-01T08:57:38;10.70;99.90
8780;DHT22;62328;51.19929245;4.42130175;2023-04-01T09:00:25;10.80;99.90
8780;DHT22;62328;51.19929245;4.42130175;2023-04-01T09:03:30;10.70;99.90
8780;DHT22;62328;51.19929245;4.42130175;2023-04-01T09:06:26;10.80;99.90
8780;DHT22;62328;51.19929245;4.42130175;2023-04-01T09:12:46;10.90;99.90
8780;DHT22;62328;51.19929245;4.42130175;2023-04-01T09:15:42;10.80;99.90
8780;DHT22;62328;51.19929245;4.42130175;2023-04-01T09:24:56;10.90;99.90
8780;DHT22;62328;51.19929245;4.42130175;2023-04-01T09:27:29;10.90;99.90
8780;DHT22;62328;51.19929245;4.42130175;2023-04-01T09:30:36;11.00;99.90
8780;DHT22;62328;51.19929245;4.42130175;2023-04-01T09:36:43;11.40;99.90
8780;DHT22;62328;51.19929245;4.42130175;2023-04-01T09:39:36;11.50;99.90
8780;DHT22;62328;51.19929245;4.42130175;2023-04-01T09:45:28;11.50;99.90
8780;DHT22;62328;51.19929245;4.42130175;2023-04-01T09:48:19;11.50;99.90
8780;DHT22;62328;51.19929245;4.42130175;2023-04-01T09:50:53;11.50;99.90
8780;DHT22;62328;51.19929245;4.42130175;2023-04-01T09:53:41;11.40;99.90
8780;DHT22;62328;51.19929245;4.42130175;2023-04-01T09:56:42;11.40;99.90
8780;DHT22;62328;51.19929245;4.42130175;2023-04-01T09:59:36;11.30;99.90
8780;DHT22;62328;51.19929245;4.42130175;2023-04-01T10:09:04;11.30;99.90
8780;DHT22;62328;51.19929245;4.42130175;2023-04-01T10:12:13;11.30;99.90
8780;DHT22;62328;51.19929245;4.42130175;2023-04-01T10:15:32;11.30;99.90
8780;DHT22;62328;51.19929245;4.42130175;2023-04-01T10:18:22;11.40;99.90
8780;DHT22;62328;51.19929245;4.42130175;2023-04-01T10:24:21;11.50;99.90
8780;DHT22;62328;51.19929245;4.42130175;2023-04-01T10:27:02;11.50;99.90
8780;DHT22;62328;51.19929245;4.42130175;2023-04-01T10:33:18;11.60;99.90
8780;DHT22;62328;51.19929245;4.42130175;2023-04-01T10:36:22;11.60;99.90
8780;DHT22;62328;51.19929245;4.42130175;2023-04-01T10:42:29;11.50;99.90
8780;DHT22;62328;51.19929245;4.42130175;2023-04-01T10:45:28;11.60;99.90
8780;DHT22;62328;51.19929245;4.42130175;2023-04-01T10:51:10;11.60;99.90
8780;DHT22;62328;51.19929245;4.42130175;2023-04-01T10:53:46;11.80;99.90
8780;DHT22;62328;51.19929245;4.42130175;2023-04-01T10:56:40;11.80;99.90
8780;DHT22;62328;51.19929245;4.42130175;2023-04-01T10:59:36;11.80;99.90
8780;DHT22;62328;51.19929245;4.42130175;2023-04-01T11:02:36;11.70;99.90
8780;DHT22;62328;51.19929245;4.42130175;2023-04-01T11:08:52;11.70;99.90
8780;DHT22;62328;51.19929245;4.42130175;2023-04-01T11:15:14;11.60;99.90
8780;DHT22;62328;51.19929245;4.42130175;2023-04-01T11:20:56;11.50;99.90
8780;DHT22;62328;51.19929245;4.42130175;2023-04-01T11:24:00;11.40;99.90
8780;DHT22;62328;51.19929245;4.42130175;2023-04-01T11:26:44;11.40;99.90
8780;DHT22;62328;51.19929245;4.42130175;2023-04-01T11:29:47;11.40;99.90
8780;DHT22;62328;51.19929245;4.42130175;2023-04-01T11:32:56;11.40;99.90
8780;DHT22;62328;51.19929245;4.42130175;2023-04-01T11:38:57;11.40;99.90
8780;DHT22;62328;51.19929245;4.42130175;2023-04-01T11:41:56;11.50;99.90
8780;DHT22;62328;51.19929245;4.42130175;2023-04-01T11:44:31;11.60;99.90
8780;DHT22;62328;51.19929245;4.42130175;2023-04-01T11:47:18;11.60;99.90
8780;DHT22;62328;51.19929245;4.42130175;2023-04-01T11:50:00;11.70;99.90
8780;DHT22;62328;51.19929245;4.42130175;2023-04-01T11:52:53;11.70;99.90
8780;DHT22;62328;51.19929245;4.42130175;2023-04-01T11:55:31;11.70;99.90
8780;DHT22;62328;51.19929245;4.42130175;2023-04-01T11:58:28;11.60;99.90
8780;DHT22;62328;51.19929245;4.42130175;2023-04-01T12:01:18;11.50;99.90
8780;DHT22;62328;51.19929245;4.42130175;2023-04-01T12:04:21;11.70;99.90
8780;DHT22;62328;51.19929245;4.42130175;2023-04-01T12:06:59;11.90;99.90
8780;DHT22;62328;51.19929245;4.42130175;2023-04-01T12:09:36;11.80;99.90
8780;DHT22;62328;51.19929245;4.42130175;2023-04-01T12:12:15;11.80;99.90
8780;DHT22;62328;51.19929245;4.42130175;2023-04-01T12:14:50;11.80;99.90
8780;DHT22;62328;51.19929245;4.42130175;2023-04-01T12:17:29;11.80;99.90
8780;DHT22;62328;51.19929245;4.42130175;2023-04-01T12:20:21;11.90;99.90
8780;DHT22;62328;51.19929245;4.42130175;2023-04-01T12:22:59;11.90;99.90
8780;DHT22;62328;51.19929245;4.42130175;2023-04-01T12:25:41;11.90;99.90
8780;DHT22;62328;51.19929245;4.42130175;2023-04-01T12:28:20;12.00;99.90
8780;DHT22;62328;51.19929245;4.42130175;2023-04-01T12:30:58;12.20;99.90
8780;DHT22;62328;51.19929245;4.42130175;2023-04-01T12:33:45;12.30;99.90
8780;DHT22;62328;51.19929245;4.42130175;2023-04-01T12:36:32;12.40;99.90
8780;DHT22;62328;51.19929245;4.42130175;2023-04-01T12:39:21;12.40;99.90
8780;DHT22;62328;51.19929245;4.42130175;2023-04-01T12:42:03;12.40;99.90
8780;DHT22;62328;51.19929245;4.42130175;2023-04-01T12:44:45;12.30;99.90
8780;DHT22;62328;51.19929245;4.42130175;2023-04-01T12:47:33;12.20;99.90
8780;DHT22;62328;51.19929245;4.42130175;2023-04-01T12:50:19;12.20;99.90
8780;DHT22;62328;51.19929245;4.42130175;2023-04-01T12:53:01;12.00;99.90
8780;DHT22;62328;51.19929245;4.42130175;2023-04-01T12:55:38;12.00;99.90
8780;DHT22;62328;51.19929245;4.42130175;2023-04-01T12:58:38;12.00;99.90
8780;DHT22;62328;51.19929245;4.42130175;2023-04-01T13:01:41;12.00;99.90
8780;DHT22;62328;51.19929245;4.42130175;2023-04-01T13:04:34;11.90;99.90
8780;DHT22;62328;51.19929245;4.42130175;2023-04-01T13:07:22;11.80;99.90
8780;DHT22;62328;51.19929245;4.42130175;2023-04-01T13:09:58;11.60;99.90
8780;DHT22;62328;51.19929245;4.42130175;2023-04-01T13:12:44;11.60;99.90
8780;DHT22;62328;51.19929245;4.42130175;2023-04-01T13:15:26;11.70;99.90
8780;DHT22;62328;51.19929245;4.42130175;2023-04-01T13:18:02;11.70;99.90
8780;DHT22;62328;51.19929245;4.42130175;2023-04-01T13:20:43;11.60;99.90
8780;DHT22;62328;51.19929245;4.42130175;2023-04-01T13:23:22;11.50;99.90
8780;DHT22;62328;51.19929245;4.42130175;2023-04-01T13:25:57;11.50;99.90
8780;DHT22;62328;51.19929245;4.42130175;2023-04-01T13:28:32;11.50;99.90
8780;DHT22;62328;51.19929245;4.42130175;2023-04-01T13:31:08;11.40;99.90
8780;DHT22;62328;51.19929245;4.42130175;2023-04-01T13:33:40;11.40;99.90
8780;DHT22;62328;51.19929245;4.42130175;2023-04-01T13:36:18;11.40;99.90
8780;DHT22;62328;51.19929245;4.42130175;2023-04-01T13:38:56;11.50;99.90
8780;DHT22;62328;51.19929245;4.42130175;2023-04-01T13:41:37;11.50;99.90
8780;DHT22;62328;51.19929245;4.42130175;2023-04-01T13:44:11;11.50;99.90
8780;DHT22;62328;51.19929245;4.42130175;2023-04-01T13:47:01;11.60;99.90
8780;DHT22;62328;51.19929245;4.42130175;2023-04-01T13:49:41;11.60;99.90
8780;DHT22;62328;51.19929245;4.42130175;2023-04-01T13:52:33;11.70;99.90
8780;DHT22;62328;51.19929245;4.42130175;2023-04-01T13:55:23;11.70;99.90
8780;DHT22;62328;51.19929245;4.42130175;2023-04-01T13:58:20;11.70;99.90
8780;DHT22;62328;51.19929245;4.42130175;2023-04-01T14:00:55;11.70;99.90
8780;DHT22;62328;51.19929245;4.42130175;2023-04-01T14:06:27;11.70;99.90
8780;DHT22;62328;51.19929245;4.42130175;2023-04-01T14:09:13;11.70;99.90
8780;DHT22;62328;51.19929245;4.42130175;2023-04-01T14:11:48;11.70;99.90
8780;DHT22;62328;51.19929245;4.42130175;2023-04-01T14:14:26;11.80;99.90
8780;DHT22;62328;51.19929245;4.42130175;2023-04-01T14:17:14;11.80;99.90
8780;DHT22;62328;51.19929245;4.42130175;2023-04-01T14:20:17;11.80;99.90
8780;DHT22;62328;51.19929245;4.42130175;2023-04-01T14:22:59;11.80;99.90
8780;DHT22;62328;51.19929245;4.42130175;2023-04-01T14:25:44;11.70;99.90
8780;DHT22;62328;51.19929245;4.42130175;2023-04-01T14:28:21;11.60;99.90
8780;DHT22;62328;51.19929245;4.42130175;2023-04-01T14:31:00;11.60;99.90
8780;DHT22;62328;51.19929245;4.42130175;2023-04-01T14:33:41;11.60;99.90
8780;DHT22;62328;51.19929245;4.42130175;2023-04-01T14:39:21;11.60;99.90
8780;DHT22;62328;51.19929245;4.42130175;2023-04-01T14:42:02;11.60;99.90
8780;DHT22;62328;51.19929245;4.42130175;2023-04-01T14:44:54;11.70;99.90
8780;DHT22;62328;51.19929245;4.42130175;2023-04-01T14:47:34;11.70;99.90
8780;DHT22;62328;51.19929245;4.42130175;2023-04-01T14:50:11;11.70;99.90
8780;DHT22;62328;51.19929245;4.42130175;2023-04-01T14:52:41;11.70;99.90
8780;DHT22;62328;51.19929245;4.42130175;2023-04-01T14:55:29;11.60;99.90
8780;DHT22;62328;51.19929245;4.42130175;2023-04-01T14:58:15;11.60;99.90
8780;DHT22;62328;51.19929245;4.42130175;2023-04-01T15:00:54;11.40;99.90
8780;DHT22;62328;51.19929245;4.42130175;2023-04-01T15:03:26;11.40;99.90
8780;DHT22;62328;51.19929245;4.42130175;2023-04-01T15:06:24;11.40;99.90
8780;DHT22;62328;51.19929245;4.42130175;2023-04-01T15:08:57;11.40;99.90
8780;DHT22;62328;51.19929245;4.42130175;2023-04-01T15:11:42;11.30;99.90
8780;DHT22;62328;51.19929245;4.42130175;2023-04-01T15:14:46;11.40;99.90
8780;DHT22;62328;51.19929245;4.42130175;2023-04-01T15:17:23;11.40;99.90
8780;DHT22;62328;51.19929245;4.42130175;2023-04-01T15:20:19;11.30;99.90
8780;DHT22;62328;51.19929245;4.42130175;2023-04-01T15:23:00;11.40;99.90
8780;DHT22;62328;51.19929245;4.42130175;2023-04-01T15:28:25;11.30;99.90
8780;DHT22;62328;51.19929245;4.42130175;2023-04-01T15:30:58;11.30;99.90
8780;DHT22;62328;51.19929245;4.42130175;2023-04-01T15:33:55;11.30;99.90
8780;DHT22;62328;51.19929245;4.42130175;2023-04-01T15:36:29;11.10;99.90
8780;DHT22;62328;51.19929245;4.42130175;2023-04-01T15:39:09;11.10;99.90
8780;DHT22;62328;51.19929245;4.42130175;2023-04-01T15:41:48;11.00;99.90